עמוד ראשי
METAR-TAF:

METAR-TAF

שדות תעופה :

Salinas, אקוודור

קו רוחב: 02-12-18S, קו אורך: 080-59-20W, גובה: 5מטר

תצפית מזג אוויר נוכחית

הדו"ח נערך לפני 34דקות, בשעה 12:00 UTC
רוח 4קשר מכיוון צפון/צפון-מערב
טמפרטורת 25 צלסיוס
לחות 89%
לחץ 1010 hPa
ראות 10 קילומטר או יותר
מעט עננים בגובה 1000רגל
עננים פזורים בגובה 7000רגל

METAR: SESA 121200Z 33004KT 9999 FEW010 SCT070 25/23 Q1010 RMK A2982

זמן: 07:34 (12:34 UTC)


TAF: חסר

תצפיות ותחזיות מזג אוויר לגבי יותר מ- 4,000 שדות תעופה ברחבי העולם. דוחות METAR ו- TAF.

התחנות הזמינות מסומנות בנקודות צהובות ואדומות על גבי המפה.

העבר את העכבר לנקודה הצבעונית על מנת לראות את שם התחנה.

לאחר מכן, לחץ כדי לראות את תוכן ואת תחזיות מזג האוויר.

כדי לשנות את המפה: לחץ על הכפתורים הירוקים עם הפלוס השחור כדי להתקרב; על הכפתור הירוק עם המקף כדי להתרחק; או בחיצים הירוקים למפות סמוכות.


METAR-TAF: